• Join FlightAware (Why Join?)
  • Login
  • US Flag 
08:29AM EDT


 

Airport Tracker/Info


-or-


 

Live Flight TrackerFlight Track Log ✈ QJE1939 ✈ 29-Jun-2013 ✈ YPDN / DRW - YBAS / ASP

Flight Track Log - Related Links

Times and Time Zones

All times are in EDT time to prevent confusion due to time zone crossing. See the QJE1939 flight status page for this flight to view local times or setup timezone preferences in your user account.

Time Position Orientation Groundspeed Altitude Reporting Facility
EDT Latitude Longitude Course Direction KTS MPH feet Rate Location/Type
01:26AM -12.4232 130.9079 110° East 131 151 1,600  Level Aus ATC (RADAR)
01:26AM -12.4280 130.9200 110° East 2,000 1,020 Climbing FlightAware
01:26AM -12.4318 130.9319 110° East 148 170 2,200 960 Climbing Aus ATC (RADAR)
01:26AM -12.4320 130.9320 109° East 173 199 2,200 1,680 Level FlightAware
01:27AM -12.4400 130.9560 109° East 210 242 3,000 1,800 Climbing FlightAware
01:27AM -12.4480 130.9800 109° East 236 272 3,800 1,980 Climbing FlightAware
01:27AM -12.4550 130.9930 119° Southeast 253 291 4,200 2,400 Climbing FlightAware
01:28AM -12.4700 131.0040 144° Southeast 260 299 5,000 2,700 Climbing FlightAware
01:28AM -12.4820 131.0070 166° South 267 307 5,600 3,360 Climbing FlightAware
01:28AM -12.5040 131.0110 170° South 270 311 6,400 3,000 Climbing FlightAware
01:29AM -12.5450 131.0160 170° South 280 322 7,800 2,520 Climbing FlightAware
01:29AM -12.5472 131.0162 170° South 267 307 7,800 2,460 Level Aus ATC (RADAR)
01:29AM -12.5840 131.0220 171° South 275 316 9,100 2,520 Climbing FlightAware
01:30AM -12.6301 131.0512 171° South 269 310 10,800 2,400 Climbing Aus ATC (RADAR)
01:30AM -12.6290 131.0500 171° South 292 336 10,700 1,320 Descending FlightAware
01:30AM -12.6720 131.0793 171° South 293 337 11,600 1,500 Climbing Aus ATC (RADAR)
01:30AM -12.6780 131.0840 171° South 332 382 11,700 1,200 Climbing FlightAware
01:31AM -12.7380 131.1250 146° Southeast 368 423 12,600 1,680 Climbing FlightAware
01:32AM -12.7970 131.1660 146° Southeast 379 436 14,100 2,100 Climbing FlightAware
01:33AM -12.8690 131.2000 155° Southeast 381 438 15,600 1,860 Climbing FlightAware
01:33AM -12.9392 131.2258 155° Southeast 379 436 16,800 1,800 Climbing Aus ATC (RADAR)
01:33AM -12.9380 131.2260 155° Southeast 391 450 16,800 1,980 Level FlightAware
01:34AM -12.9923 131.2445 155° Southeast 388 447 17,800 1,920 Climbing Aus ATC (RADAR)
01:34AM -13.0090 131.2510 155° Southeast 407 468 18,100 1,440 Climbing FlightAware
01:34AM -13.0727 131.2735 155° Southeast 397 457 18,900 1,320 Climbing Aus ATC (RADAR)
01:35AM -13.0810 131.2770 155° Southeast 414 476 19,000 1,320 Climbing FlightAware
01:35AM -13.1381 131.2975 155° Southeast 417 480 19,700 1,560 Climbing Aus ATC (RADAR)
01:35AM -13.1660 131.3090 155° Southeast 430 495 20,200 1,860 Climbing FlightAware
01:36AM -13.2224 131.3289 155° Southeast 415 478 21,100 1,680 Climbing Aus ATC (RADAR)
01:36AM -13.2500 131.3400 155° Southeast 425 489 21,500 1,080 Climbing FlightAware
01:37AM -13.3280 131.3690 160° South 448 516 22,100 1,080 Climbing FlightAware
01:37AM -13.4070 131.3980 160° South 449 517 23,000 1,260 Climbing FlightAware
01:38AM -13.4880 131.4280 160° South 459 528 23,900 1,320 Climbing FlightAware
01:39AM -13.5760 131.4610 160° South 461 531 24,900 1,380 Climbing FlightAware
01:39AM -13.6579 131.4896 160° South 449 517 25,800 1,500 Climbing Aus ATC (RADAR)
01:40AM -13.6660 131.4950 160° South 460 529 26,000 1,200 Climbing FlightAware
01:40AM -13.7285 131.5160 160° South 450 518 26,500 1,020 Climbing Aus ATC (RADAR)
01:40AM -13.7470 131.5250 160° South 464 534 26,700 900 Climbing FlightAware
01:41AM -13.8197 131.5496 160° South 455 524 27,200 900 Climbing Aus ATC (RADAR)
01:41AM -13.8280 131.5550 160° South 462 532 27,300 840 Climbing FlightAware
01:41AM -13.8919 131.5767 160° South 462 532 27,700 780 Climbing Aus ATC (RADAR)
01:42AM -13.9200 131.5890 160° South 476 548 27,900 960 Climbing FlightAware
01:42AM -14.0040 131.6210 160° South 479 551 28,600 1,080 Climbing FlightAware
01:43AM -14.0900 131.6530 160° South 479 551 29,400 1,200 Climbing FlightAware
01:44AM -14.1780 131.6850 161° South 475 547 30,300 960 Climbing FlightAware
01:44AM -14.2563 131.7128 161° South 469 540 30,700 960 Climbing Aus ATC (RADAR)
01:44AM -14.2730 131.7200 161° South 478 550 31,000 1,080 Climbing FlightAware
01:45AM -14.4022 131.7671 161° South 468 539 32,000 900 Climbing Aus ATC (RADAR)
01:46AM -14.4865 131.7982 160° South 473 544 32,600 720 Climbing Aus ATC (RADAR)
01:47AM -14.5709 131.8298 160° South 474 545 33,000 240 Climbing Aus ATC (RADAR)
01:48AM -14.6967 131.8768 160° South 472 543 33,000  Level Aus ATC (RADAR)
01:48AM -14.7710 131.9070 160° South 473 544 33,000  Level FlightAware
01:49AM -14.8470 131.9360 160° South 469 540 33,000  Level FlightAware
01:50AM -14.9220 131.9650 160° South 472 543 33,000  Level FlightAware
01:51AM -15.0390 132.0090 160° South 476 548 33,000  Level FlightAware
01:51AM -15.0471 132.0099 160° South 468 539 33,000 -180 Level Aus ATC (RADAR)
01:51AM -15.1193 132.0374 160° South 466 536 32,900  Descending Aus ATC (RADAR)
01:51AM -15.1360 132.0460 160° South 473 544 33,000 120 Climbing FlightAware
01:52AM -15.2190 132.0770 160° South 473 544 33,000  Level FlightAware
01:53AM -15.3060 132.1100 160° South 476 548 33,000  Level FlightAware
01:53AM -15.3980 132.1428 160° South 467 537 33,000  Level Aus ATC (RADAR)
01:53AM -15.4020 132.1460 160° South 477 549 33,000  Level FlightAware
01:54AM -15.4914 132.1789 160° South 470 541 33,000  Level Aus ATC (RADAR)
01:54AM -15.4880 132.1790 160° South 475 547 33,000  Level FlightAware
01:55AM -15.5954 132.2175 160° South 469 540 33,000  Level Aus ATC (RADAR)
01:56AM -15.6550 132.2430 160° South 476 548 33,000 60 Level FlightAware
01:56AM -15.7290 132.2710 160° South 476 548 33,100 60 Climbing FlightAware
01:57AM -15.7920 132.2960 159° South 476 548 33,100 1,740 Level FlightAware
01:57AM -15.8780 132.3260 161° South 470 541 35,000 1,500 Climbing FlightAware
01:58AM -15.9770 132.3640 160° South 463 533 35,000  Level FlightAware
01:59AM -16.0630 132.3980 160° South 462 532 35,000  Level FlightAware
01:59AM -16.0838 132.4044 160° South 458 527 35,000  Level Aus ATC (RADAR)
02:00AM -16.2048 132.4535 160° South 459 528 35,000  Level Aus ATC (RADAR)
02:01AM -16.2763 132.4796 161° South 461 531 35,000  Level Aus ATC (RADAR)
02:01AM -16.3475 132.5067 160° South 462 532 35,000  Level Aus ATC (RADAR)
02:02AM -16.4182 132.5338 160° South 460 529 35,000  Level Aus ATC (RADAR)
02:02AM -16.4896 132.5619 159° South 463 533 35,000  Level Aus ATC (RADAR)
02:03AM -16.5820 132.5950 159° South 467 537 35,000  Level FlightAware
02:04AM -16.6640 132.6270 160° South 467 537 35,000  Level FlightAware
02:04AM -16.7328 132.6563 160° South 463 533 35,000  Level Aus ATC (RADAR)
02:04AM -16.7400 132.6560 160° South 467 537 35,000  Level FlightAware
02:05AM -16.8042 132.6835 160° South 464 534 35,000  Level Aus ATC (RADAR)
02:06AM -16.8752 132.7108 160° South 463 533 35,000  Level Aus ATC (RADAR)
02:06AM -16.8810 132.7100 160° South 468 539 35,000  Level FlightAware
02:06AM -16.9881 132.7544 160° South 469 540 35,000  Level Aus ATC (RADAR)
02:07AM -17.0890 132.7710 163° South 463 533 35,000  Level FlightAware
02:07AM -17.0915 132.7881 163° South 468 539 35,000  Level Aus ATC (RADAR)
02:08AM -17.1769 132.7975 163° South 462 532 35,000  Level Aus ATC (RADAR)
02:08AM -17.1790 132.7860 163° South 466 536 35,000  Level FlightAware
02:09AM -17.2539 132.7965 163° South 465 535 35,000  Level Aus ATC (RADAR)
02:09AM -17.2760 132.8010 163° South 467 537 35,000  Level FlightAware
02:09AM -17.3660 132.8150 172° South 466 536 35,000  Level FlightAware
02:10AM -17.4440 132.8280 171° South 467 537 35,000  Level FlightAware
02:11AM -17.5650 132.8470 171° South 469 540 35,000 180 Level FlightAware
02:11AM -17.5747 132.8530 171° South 473 544 35,200  Climbing Aus ATC (RADAR)
02:11AM -17.6270 132.8570 171° South 469 540 35,000  Descending FlightAware
02:12AM -17.6377 132.8637 171° South 462 532 35,200 300 Climbing Aus ATC (RADAR)
02:12AM -17.7132 132.8748 171° South 463 533 35,200 -300 Level Aus ATC (RADAR)
02:12AM -17.7220 132.8720 171° South 469 540 35,000 -300 Descending FlightAware
02:13AM -17.8020 132.8850 171° South 471 542 35,000 120 Level FlightAware
02:14AM -17.9398 132.9102 171° South 459 528 35,200  Climbing Aus ATC (RADAR)
02:14AM -17.9380 132.9060 171° South 471 542 35,000 -300 Descending FlightAware
02:15AM -18.0290 132.9210 171° South 469 540 35,000  Level FlightAware
02:15AM -18.1250 132.9360 172° South 469 540 35,000  Level FlightAware
02:16AM -18.2160 132.9510 171° South 470 541 35,000  Level FlightAware
02:17AM -18.2910 132.9630 171° South 469 540 35,000  Level FlightAware
02:17AM -18.3960 132.9800 171° South 471 542 35,000  Level FlightAware
02:18AM -18.4820 132.9940 171° South 472 543 35,000  Level FlightAware
02:19AM -18.5810 133.0100 171° South 473 544 35,000  Level FlightAware
02:19AM -18.6690 133.0240 171° South 472 543 35,000  Level FlightAware
02:20AM -18.7510 133.0370 171° South 472 543 35,000  Level FlightAware
02:21AM -18.8550 133.0540 171° South 474 545 35,000  Level FlightAware
02:21AM -18.8944 133.0624 175° South 35,000  Level Aus ATC (Calculated)
02:22AM -18.9410 133.0670 171° South 473 544 35,000  Level FlightAware
02:22AM -19.0380 133.0830 171° South 474 545 35,000  Level FlightAware
02:23AM -19.1250 133.0980 171° South 475 547 35,000  Level FlightAware
02:24AM -19.1982 133.1112 177° South 35,000  Level Aus ATC (Calculated)
02:24AM -19.2120 133.1120 171° South 476 548 35,000  Level FlightAware
02:24AM -19.3120 133.1280 171° South 473 544 35,000  Level FlightAware
02:25AM -19.3311 133.1326 173° South 35,000  Level Aus ATC (Calculated)
02:25AM -19.3900 133.1400 171° South 471 542 35,000  Level FlightAware
02:26AM -19.4900 133.1570 171° South 472 543 35,000  Level FlightAware
02:26AM -19.5180 133.1628 173° South 35,000  Level Aus ATC (Calculated)
02:26AM -19.5670 133.1690 171° South 473 544 35,000  Level FlightAware
02:27AM -19.6680 133.1860 171° South 473 544 35,000  Level FlightAware
02:28AM -19.7690 133.2020 172° South 472 543 35,000  Level FlightAware
02:29AM -19.8580 133.2170 171° South 470 541 35,000  Level FlightAware
02:29AM -19.9450 133.2310 171° South 467 537 35,000  Level FlightAware
02:31AM -20.1953 133.2727 172° South 35,000  Level Aus ATC (Calculated)
02:33AM -20.3948 133.3053 171° South  Level FlightAware Approximate
02:33AM -20.3760 133.3010 171° South 463 533 35,000  Level FlightAware
02:33AM -20.4770 133.3180 171° South 465 535 35,000  Level FlightAware
02:34AM -20.5640 133.3330 171° South 466 536 35,000  Level FlightAware
02:35AM -20.6750 133.3510 171° South 467 537 35,000  Level FlightAware
02:36AM -20.8301 133.3766 171° South 35,000  Level Aus ATC (Calculated)
02:37AM -20.8918 133.3868 353° North 35,000  Level Aus ATC (Calculated)
02:37AM -20.8850 133.3860 171° South 470 541 35,000  Level FlightAware
02:37AM -20.8918 133.3868 171° South 35,000  Level Aus ATC (Calculated)
02:37AM -20.9900 133.4030 171° South 471 542 35,000  Level FlightAware
02:38AM -21.0760 133.4170 171° South 471 542 35,000  Level FlightAware
02:39AM -21.1617 133.4313 170° South 35,000  Level Aus ATC (Calculated)
02:39AM -21.1710 133.4330 171° South 475 547 35,000  Level FlightAware
02:39AM -21.2560 133.4480 171° South 484 557 35,000  Level FlightAware
02:40AM -21.3262 133.4588 168° South 900  Descending Aus ATC (Calculated)
02:40AM -21.3400 133.4620 171° South 481 554 35,000 44,460 Climbing FlightAware
02:40AM -21.3262 133.4588 171° South 900  Descending Aus ATC (Calculated)
02:41AM -21.4360 133.4780 171° South 480 552 35,000 26,220 Climbing FlightAware
02:42AM -21.5350 133.4940 171° South 483 556 35,000  Level FlightAware
02:42AM -21.6280 133.5100 171° South 483 556 35,000  Level FlightAware
02:42AM -21.5575 133.4975 171° South 900  Descending Aus ATC (Calculated)
02:43AM -21.7220 133.5250 171° South 484 557 35,000 26,220 Climbing FlightAware
02:44AM -21.8120 133.5400 171° South 483 556 35,000  Level FlightAware
02:44AM -21.9090 133.5570 171° South 482 555 35,000 -360 Level FlightAware
02:45AM -21.9069 133.5562 171° South 900 -480 Descending Aus ATC (Calculated)
02:47AM -22.0900 133.5871 171° South  Level FlightAware Approximate
02:47AM -22.2060 133.6070 171° South 475 547 34,000  Level FlightAware
02:47AM -22.1427 133.5960 171° South 900 -3,600 Descending Aus ATC (Calculated)
02:47AM -22.3090 133.6250 171° South 468 539 31,500 24,780 Climbing FlightAware
02:48AM -22.2459 133.6134 171° South 900 -3,120 Descending Aus ATC (Calculated)
02:48AM -22.3980 133.6390 171° South 475 547 29,400 33,360 Climbing FlightAware
02:49AM -22.4890 133.6550 171° South 471 542 27,600 -2,400 Descending FlightAware
02:49AM -22.3426 133.6298 171° South 900 -2,160 Descending Aus ATC (Calculated)
02:49AM -22.5760 133.6700 171° South 462 532 26,200 20,820 Climbing FlightAware
02:50AM -22.6630 133.6840 172° South 454 522 24,500 -2,460 Descending FlightAware
02:50AM -22.5239 133.6606 171° South 900 -2,400 Descending Aus ATC (Calculated)
02:51AM -22.7460 133.6990 172° South 449 517 22,900 16,800 Climbing FlightAware
02:51AM -22.6032 133.6741 171° South 900 -2,340 Descending Aus ATC (Calculated)
02:51AM -22.6776 133.6868 171° South 900 34,620 Level Aus ATC (Calculated)
02:52AM -22.8420 133.7150 172° South 437 503 21,100 19,260 Climbing FlightAware
02:52AM -22.9300 133.7300 171° South 419 482 19,200 -2,460 Descending FlightAware
02:53AM -23.0020 133.7420 171° South 399 459 17,700 -2,520 Descending FlightAware
02:53AM -22.8867 133.7224 171° South 900 -2,580 Descending Aus ATC (Calculated)
02:53AM -22.8867 133.7224 171° South 900 40,860 Level Aus ATC (Calculated)
02:54AM -23.0780 133.7550 171° South 390 449 15,900 12,240 Climbing FlightAware
02:54AM -23.1520 133.7680 171° South 373 429 14,200 -2,520 Descending FlightAware
02:55AM -23.2330 133.7820 171° South 350 403 12,100 -1,980 Descending FlightAware
02:56AM -23.3050 133.7940 171° South 310 357 11,000 -1,380 Descending FlightAware
02:56AM -23.2831 133.7903 172° South 900 -1,380 Descending Aus ATC (Calculated)
02:57AM -23.3650 133.8030 171° South 286 329 10,000 13,860 Climbing FlightAware
02:57AM -23.3810 133.8060 170° South 281 323 9,700 -1,620 Descending FlightAware
02:57AM -23.4105 133.8122 174° South 900 -1,680 Descending Aus ATC (Calculated)
02:57AM -23.4180 133.8130 170° South 279 321 8,900 15,000 Climbing FlightAware
02:58AM -23.4370 133.8170 169° South 274 315 8,400 -1,800 Descending FlightAware
02:58AM -23.4690 133.8220 169° South 267 307 7,700 -1,680 Descending FlightAware
02:58AM -23.5061 133.8287 161° South 900 -1,620 Descending Aus ATC (Calculated)
02:59AM -23.5070 133.8290 169° South 263 303 6,900 5,760 Climbing FlightAware
02:59AM -23.5420 133.8350 171° South 258 297 6,200 -1,440 Descending FlightAware
02:59AM -23.6494 133.8534 351° North 900 -1,500 Descending Aus ATC (Calculated)
02:59AM -23.6494 133.8534 351° North 900 31,980 Level Aus ATC (Calculated)
02:59AM -23.5640 133.8390 171° South 257 296 5,700 900 Climbing FlightAware
03:02AM -23.8058 133.8973 127° Southeast  Level FlightAware Approximate
03:02AM -23.7270 133.8650 127° Southeast 154 177 3,500  Level FlightAware
03:02AM -23.7370 133.8590 209° Southwest 140 161 3,300 -840 Descending FlightAware
03:03AM -23.7440 133.8550 208° Southwest 137 158 3,100 -780 Descending FlightAware
03:03AM -23.7590 133.8450 211° Southwest 136 157 2,800 -720 Descending FlightAware
03:03AM -23.7670 133.8420 199° South 128 147 2,600 -660 Descending FlightAware
03:04AM -23.7800 133.8540 140° Southeast 125 144 2,300 -660 Descending FlightAware
03:04AM -23.7870 133.8670 120° Southeast 123 142 2,000 -720 Descending FlightAware
03:04AM -23.7900 133.8730 119° Southeast 125 144 1,900 -600 Descending FlightAware
03:05AM -23.7990 133.8890 122° Southeast 130 150 1,600 -660 Descending FlightAware
03:05AM -23.8060 133.9020 122° Southeast 90 104 -3,840 Descending FlightAware
03:06AM -23.8090 133.9080 119° Southeast 30 35  Level FlightAware